sensor_id;sensor_type;location;lat;lon;timestamp;temperature;humidity
30385;DHT22;17181;51.002;4.096;2023-07-29T02:17:49;19.00;99.90
30385;DHT22;17181;51.002;4.096;2023-07-29T02:32:54;18.90;99.90
30385;DHT22;17181;51.002;4.096;2023-07-29T02:35:21;19.00;99.90
30385;DHT22;17181;51.002;4.096;2023-07-29T03:06:10;18.90;99.90
30385;DHT22;17181;51.002;4.096;2023-07-29T03:49:26;18.60;99.90
30385;DHT22;17181;51.002;4.096;2023-07-29T03:51:56;18.60;99.90
30385;DHT22;17181;51.002;4.096;2023-07-29T03:55:40;18.60;99.90
30385;DHT22;17181;51.002;4.096;2023-07-29T04:06:35;18.60;99.90
30385;DHT22;17181;51.002;4.096;2023-07-29T04:18:40;18.50;99.90
30385;DHT22;17181;51.002;4.096;2023-07-29T04:30:21;18.60;99.90
30385;DHT22;17181;51.002;4.096;2023-07-29T04:32:59;18.60;99.90
30385;DHT22;17181;51.002;4.096;2023-07-29T04:38:02;18.60;99.90
30385;DHT22;17181;51.002;4.096;2023-07-29T04:40:41;18.60;99.90
30385;DHT22;17181;51.002;4.096;2023-07-29T04:43:40;18.70;99.90
30385;DHT22;17181;51.002;4.096;2023-07-29T04:53:26;18.60;99.90
30385;DHT22;17181;51.002;4.096;2023-07-29T04:56:06;18.50;99.90
30385;DHT22;17181;51.002;4.096;2023-07-29T04:58:46;18.70;99.90
30385;DHT22;17181;51.002;4.096;2023-07-29T05:01:38;18.60;99.90
30385;DHT22;17181;51.002;4.096;2023-07-29T05:36:57;18.60;99.90
30385;DHT22;17181;51.002;4.096;2023-07-29T06:02:47;19.20;99.90
30385;DHT22;17181;51.002;4.096;2023-07-29T06:36:18;19.80;99.90
30385;DHT22;17181;51.002;4.096;2023-07-29T07:58:02;21.20;99.90
30385;DHT22;17181;51.002;4.096;2023-07-29T08:00:28;21.20;99.90
30385;DHT22;17181;51.002;4.096;2023-07-29T08:02:55;21.20;99.90
30385;DHT22;17181;51.002;4.096;2023-07-29T08:05:21;21.40;99.90
30385;DHT22;17181;51.002;4.096;2023-07-29T08:08:14;21.50;99.90
30385;DHT22;17181;51.002;4.096;2023-07-29T08:10:42;21.60;99.90
30385;DHT22;17181;51.002;4.096;2023-07-29T08:13:09;21.60;99.90
30385;DHT22;17181;51.002;4.096;2023-07-29T08:15:52;21.60;99.90
30385;DHT22;17181;51.002;4.096;2023-07-29T08:18:28;21.70;99.90
30385;DHT22;17181;51.002;4.096;2023-07-29T08:21:01;21.80;99.90
30385;DHT22;17181;51.002;4.096;2023-07-29T08:23:31;21.80;99.90
30385;DHT22;17181;51.002;4.096;2023-07-29T08:26:03;21.80;99.90
30385;DHT22;17181;51.002;4.096;2023-07-29T08:28:37;21.80;99.90
30385;DHT22;17181;51.002;4.096;2023-07-29T08:31:06;21.90;99.90
30385;DHT22;17181;51.002;4.096;2023-07-29T08:33:34;22.00;99.90
30385;DHT22;17181;51.002;4.096;2023-07-29T08:36:03;22.10;99.90
30385;DHT22;17181;51.002;4.096;2023-07-29T08:38:30;22.10;99.90
30385;DHT22;17181;51.002;4.096;2023-07-29T08:41:16;22.30;99.90
30385;DHT22;17181;51.002;4.096;2023-07-29T08:46:16;22.60;99.90
30385;DHT22;17181;51.002;4.096;2023-07-29T08:48:43;22.70;99.90
30385;DHT22;17181;51.002;4.096;2023-07-29T08:51:10;22.70;99.90
30385;DHT22;17181;51.002;4.096;2023-07-29T08:53:39;22.70;99.90
30385;DHT22;17181;51.002;4.096;2023-07-29T08:56:06;22.70;99.90
30385;DHT22;17181;51.002;4.096;2023-07-29T08:58:40;22.70;99.90
30385;DHT22;17181;51.002;4.096;2023-07-29T09:01:07;22.80;99.90
30385;DHT22;17181;51.002;4.096;2023-07-29T09:03:33;22.80;99.90
30385;DHT22;17181;51.002;4.096;2023-07-29T09:06:00;22.90;99.90
30385;DHT22;17181;51.002;4.096;2023-07-29T09:08:27;22.90;99.90
30385;DHT22;17181;51.002;4.096;2023-07-29T09:10:54;23.00;99.90
30385;DHT22;17181;51.002;4.096;2023-07-29T09:13:24;23.00;99.90
30385;DHT22;17181;51.002;4.096;2023-07-29T09:16:15;23.00;99.90
30385;DHT22;17181;51.002;4.096;2023-07-29T09:18:42;23.00;99.90
30385;DHT22;17181;51.002;4.096;2023-07-29T09:21:11;23.00;99.90
30385;DHT22;17181;51.002;4.096;2023-07-29T09:24:02;23.10;99.90
30385;DHT22;17181;51.002;4.096;2023-07-29T09:26:29;23.00;99.90
30385;DHT22;17181;51.002;4.096;2023-07-29T09:29:00;23.00;99.90
30385;DHT22;17181;51.002;4.096;2023-07-29T09:31:30;22.90;99.90
30385;DHT22;17181;51.002;4.096;2023-07-29T09:34:00;22.80;99.90
30385;DHT22;17181;51.002;4.096;2023-07-29T09:36:27;22.80;99.90
30385;DHT22;17181;51.002;4.096;2023-07-29T09:38:56;22.80;99.90
30385;DHT22;17181;51.002;4.096;2023-07-29T09:41:27;22.90;99.90
30385;DHT22;17181;51.002;4.096;2023-07-29T09:43:59;23.00;99.90
30385;DHT22;17181;51.002;4.096;2023-07-29T09:46:27;23.00;99.90
30385;DHT22;17181;51.002;4.096;2023-07-29T09:48:57;23.20;99.90
30385;DHT22;17181;51.002;4.096;2023-07-29T09:51:23;23.30;99.90
30385;DHT22;17181;51.002;4.096;2023-07-29T09:53:51;23.30;99.90
30385;DHT22;17181;51.002;4.096;2023-07-29T09:56:18;23.40;99.90
30385;DHT22;17181;51.002;4.096;2023-07-29T09:58:50;23.40;99.90
30385;DHT22;17181;51.002;4.096;2023-07-29T10:01:16;23.30;99.90
30385;DHT22;17181;51.002;4.096;2023-07-29T10:03:45;23.40;99.90
30385;DHT22;17181;51.002;4.096;2023-07-29T10:06:12;23.40;99.90
30385;DHT22;17181;51.002;4.096;2023-07-29T10:08:39;23.40;99.90
30385;DHT22;17181;51.002;4.096;2023-07-29T10:11:12;23.50;99.90
30385;DHT22;17181;51.002;4.096;2023-07-29T10:13:41;23.50;99.90
30385;DHT22;17181;51.002;4.096;2023-07-29T10:16:14;23.50;99.90
30385;DHT22;17181;51.002;4.096;2023-07-29T10:18:42;23.50;99.90
30385;DHT22;17181;51.002;4.096;2023-07-29T10:21:12;23.60;99.90
30385;DHT22;17181;51.002;4.096;2023-07-29T10:23:49;23.70;99.90
30385;DHT22;17181;51.002;4.096;2023-07-29T10:26:28;23.70;99.90
30385;DHT22;17181;51.002;4.096;2023-07-29T10:28:59;23.60;99.90
30385;DHT22;17181;51.002;4.096;2023-07-29T10:31:31;23.50;99.90
30385;DHT22;17181;51.002;4.096;2023-07-29T10:33:57;23.50;99.90
30385;DHT22;17181;51.002;4.096;2023-07-29T10:36:23;23.50;99.90
30385;DHT22;17181;51.002;4.096;2023-07-29T10:38:49;23.30;99.90
30385;DHT22;17181;51.002;4.096;2023-07-29T10:41:20;23.30;99.90
30385;DHT22;17181;51.002;4.096;2023-07-29T10:43:54;23.20;99.90
30385;DHT22;17181;51.002;4.096;2023-07-29T10:46:25;23.30;99.90
30385;DHT22;17181;51.002;4.096;2023-07-29T10:48:54;23.40;99.90
30385;DHT22;17181;51.002;4.096;2023-07-29T10:51:25;23.50;99.90
30385;DHT22;17181;51.002;4.096;2023-07-29T10:53:58;23.60;99.90
30385;DHT22;17181;51.002;4.096;2023-07-29T10:56:33;23.50;99.90
30385;DHT22;17181;51.002;4.096;2023-07-29T10:59:31;23.60;99.90
30385;DHT22;17181;51.002;4.096;2023-07-29T11:02:01;23.50;99.90
30385;DHT22;17181;51.002;4.096;2023-07-29T11:04:27;23.40;99.90
30385;DHT22;17181;51.002;4.096;2023-07-29T11:12:44;22.70;99.90
30385;DHT22;17181;51.002;4.096;2023-07-29T11:20:10;21.70;99.90
30385;DHT22;17181;51.002;4.096;2023-07-29T11:22:37;21.50;99.90
30385;DHT22;17181;51.002;4.096;2023-07-29T11:25:04;21.40;99.90
30385;DHT22;17181;51.002;4.096;2023-07-29T12:26:01;22.60;99.90
30385;DHT22;17181;51.002;4.096;2023-07-29T12:28:29;22.70;99.90
30385;DHT22;17181;51.002;4.096;2023-07-29T12:33:48;23.00;99.90
30385;DHT22;17181;51.002;4.096;2023-07-29T12:36:18;23.20;99.90
30385;DHT22;17181;51.002;4.096;2023-07-29T12:38:45;23.40;99.90
30385;DHT22;17181;51.002;4.096;2023-07-29T12:41:30;23.50;99.90
30385;DHT22;17181;51.002;4.096;2023-07-29T12:46:50;23.90;99.90
30385;DHT22;17181;51.002;4.096;2023-07-29T12:52:18;24.10;99.90
30385;DHT22;17181;51.002;4.096;2023-07-29T12:54:53;24.20;99.90
30385;DHT22;17181;51.002;4.096;2023-07-29T13:00:25;24.50;99.90
30385;DHT22;17181;51.002;4.096;2023-07-29T13:02:54;24.60;99.90
30385;DHT22;17181;51.002;4.096;2023-07-29T13:05:43;24.80;99.90
30385;DHT22;17181;51.002;4.096;2023-07-29T13:08:11;24.90;99.90
30385;DHT22;17181;51.002;4.096;2023-07-29T13:10:40;25.00;99.90
30385;DHT22;17181;51.002;4.096;2023-07-29T13:13:19;25.00;99.90
30385;DHT22;17181;51.002;4.096;2023-07-29T13:15:52;25.10;99.90
30385;DHT22;17181;51.002;4.096;2023-07-29T13:18:19;25.20;99.90
30385;DHT22;17181;51.002;4.096;2023-07-29T13:20:45;25.40;99.90
30385;DHT22;17181;51.002;4.096;2023-07-29T13:23:42;25.60;99.90
30385;DHT22;17181;51.002;4.096;2023-07-29T13:26:11;26.10;99.90
30385;DHT22;17181;51.002;4.096;2023-07-29T13:31:50;27.10;99.90
30385;DHT22;17181;51.002;4.096;2023-07-29T13:34:35;27.90;99.90
30385;DHT22;17181;51.002;4.096;2023-07-29T13:37:38;28.20;99.90
30385;DHT22;17181;51.002;4.096;2023-07-29T14:49:46;26.80;99.90
30385;DHT22;17181;51.002;4.096;2023-07-29T14:52:12;27.40;99.90
30385;DHT22;17181;51.002;4.096;2023-07-29T14:55:08;27.60;99.90
30385;DHT22;17181;51.002;4.096;2023-07-29T14:57:34;27.70;99.90
30385;DHT22;17181;51.002;4.096;2023-07-29T15:00:00;28.00;99.90
30385;DHT22;17181;51.002;4.096;2023-07-29T15:02:34;28.50;99.90
30385;DHT22;17181;51.002;4.096;2023-07-29T15:05:03;28.60;99.90
30385;DHT22;17181;51.002;4.096;2023-07-29T15:07:29;28.40;99.90
30385;DHT22;17181;51.002;4.096;2023-07-29T15:09:57;28.40;99.90
30385;DHT22;17181;51.002;4.096;2023-07-29T15:12:24;28.40;99.90
30385;DHT22;17181;51.002;4.096;2023-07-29T15:14:54;28.20;99.90
30385;DHT22;17181;51.002;4.096;2023-07-29T15:17:20;27.60;99.90
30385;DHT22;17181;51.002;4.096;2023-07-29T15:19:46;27.50;99.90
30385;DHT22;17181;51.002;4.096;2023-07-29T15:22:21;27.80;99.90
30385;DHT22;17181;51.002;4.096;2023-07-29T15:24:50;28.30;99.90
30385;DHT22;17181;51.002;4.096;2023-07-29T15:27:27;28.30;99.90
30385;DHT22;17181;51.002;4.096;2023-07-29T15:29:52;27.90;99.90
30385;DHT22;17181;51.002;4.096;2023-07-29T15:32:18;27.80;99.90
30385;DHT22;17181;51.002;4.096;2023-07-29T15:34:50;27.60;99.90
30385;DHT22;17181;51.002;4.096;2023-07-29T15:37:16;27.30;99.90
30385;DHT22;17181;51.002;4.096;2023-07-29T15:39:42;26.90;99.90
30385;DHT22;17181;51.002;4.096;2023-07-29T15:42:07;26.60;99.90
30385;DHT22;17181;51.002;4.096;2023-07-29T15:45:11;26.50;99.90
